createdAt,value
2018-11-12T00:00:36.833Z,89.15
2018-11-12T00:03:42.234Z,88.62
2018-11-12T00:06:47.573Z,87.58
2018-11-12T00:09:52.902Z,88.09
2018-11-12T00:12:58.609Z,88.13
2018-11-12T00:16:03.995Z,88.44
2018-11-12T00:19:09.599Z,87.55
2018-11-12T00:22:14.947Z,87.79
2018-11-12T00:25:20.374Z,87.68
2018-11-12T00:28:25.970Z,87.75
2018-11-12T00:31:31.332Z,88.30
2018-11-12T00:34:36.722Z,87.16
2018-11-12T00:37:42.930Z,87.66
2018-11-12T00:40:48.281Z,88.11
2018-11-12T00:43:53.677Z,87.63
2018-11-12T00:46:59.129Z,87.74
2018-11-12T00:50:04.723Z,88.34
2018-11-12T00:53:10.073Z,88.04
2018-11-12T00:56:15.421Z,88.42
2018-11-12T00:59:21.105Z,88.89
2018-11-12T01:02:26.614Z,88.02
2018-11-12T01:05:32.025Z,88.94
2018-11-12T01:08:37.381Z,88.35
2018-11-12T01:11:42.868Z,88.45
2018-11-12T01:14:48.277Z,88.56
2018-11-12T01:17:53.686Z,89.21
2018-11-12T01:20:59.032Z,89.19
2018-11-12T01:24:04.447Z,89.23
2018-11-12T01:27:09.801Z,89.28
2018-11-12T01:30:17.302Z,89.07
2018-11-12T01:33:23.096Z,89.55
2018-11-12T01:36:28.442Z,89.43
2018-11-12T01:39:33.774Z,89.29
2018-11-12T01:42:39.145Z,89.30
2018-11-12T01:45:44.522Z,88.95
2018-11-12T01:48:49.894Z,88.11
2018-11-12T01:51:55.286Z,88.66
2018-11-12T01:55:00.655Z,88.23
2018-11-12T01:58:06.050Z,88.06
2018-11-12T02:01:11.381Z,87.79
2018-11-12T02:04:16.861Z,87.96
2018-11-12T02:07:22.210Z,87.97
2018-11-12T02:10:27.542Z,88.41
2018-11-12T02:13:32.942Z,88.41
2018-11-12T02:16:38.269Z,88.19
2018-11-12T02:19:43.970Z,88.74
2018-11-12T02:22:50.307Z,89.07
2018-11-12T02:25:58.713Z,89.05
2018-11-12T02:29:04.126Z,89.33
2018-11-12T02:32:09.523Z,89.44
2018-11-12T02:35:15.313Z,89.92
2018-11-12T02:38:20.663Z,89.79
2018-11-12T02:41:26.006Z,89.43
2018-11-12T02:44:31.430Z,90.00
2018-11-12T02:47:36.786Z,90.35
2018-11-12T02:50:42.118Z,90.38
2018-11-12T02:53:47.599Z,90.55
2018-11-12T02:56:52.926Z,90.33
2018-11-12T02:59:58.377Z,90.72
2018-11-12T03:03:03.765Z,90.42
2018-11-12T03:06:09.113Z,90.50
2018-11-12T03:09:15.035Z,90.37
2018-11-12T03:12:20.406Z,90.22
2018-11-12T03:15:25.850Z,90.32
2018-11-12T03:18:31.221Z,90.19
2018-11-12T03:21:36.557Z,90.06
2018-11-12T03:24:41.967Z,89.86
2018-11-12T03:27:47.955Z,90.37
2018-11-12T03:30:53.494Z,90.27
2018-11-12T03:33:59.958Z,90.18
2018-11-12T03:37:05.659Z,90.93
2018-11-12T03:40:18.288Z,90.56
2018-11-12T03:43:23.678Z,90.31
2018-11-12T03:46:29.025Z,90.77
2018-11-12T03:49:34.383Z,90.78
2018-11-12T03:52:40.016Z,90.15
2018-11-12T03:55:45.445Z,90.39
2018-11-12T03:58:50.798Z,90.84
2018-11-12T04:01:58.282Z,90.89
2018-11-12T04:05:04.054Z,90.24
2018-11-12T04:08:09.422Z,90.09
2018-11-12T04:11:14.910Z,90.48
2018-11-12T04:14:20.334Z,90.07
2018-11-12T04:17:25.697Z,90.47
2018-11-12T04:20:31.182Z,90.41
2018-11-12T04:23:36.685Z,90.38
2018-11-12T04:26:42.050Z,90.12
2018-11-12T04:29:47.950Z,90.29
2018-11-12T04:32:53.298Z,90.68
2018-11-12T04:35:58.759Z,90.57
2018-11-12T04:39:04.834Z,90.88
2018-11-12T04:42:10.186Z,90.94
2018-11-12T04:45:16.754Z,91.19
2018-11-12T04:48:22.130Z,91.08
2018-11-12T04:51:27.621Z,91.22
2018-11-12T04:54:33.180Z,90.86
2018-11-12T04:57:39.338Z,90.95
2018-11-12T05:00:44.700Z,91.37
2018-11-12T05:03:50.150Z,90.86
2018-11-12T05:06:55.485Z,91.08
2018-11-12T05:10:00.829Z,90.54
2018-11-12T05:13:06.274Z,90.21
2018-11-12T05:16:11.853Z,89.63
2018-11-12T05:19:17.218Z,90.13
2018-11-12T05:22:22.546Z,89.88
2018-11-12T05:25:28.565Z,90.58
2018-11-12T05:28:34.153Z,90.38
2018-11-12T05:31:39.513Z,90.75
2018-11-12T05:34:45.058Z,90.73
2018-11-12T05:37:50.885Z,90.41
2018-11-12T05:40:56.418Z,90.60
2018-11-12T05:44:01.899Z,90.80
2018-11-12T05:47:07.328Z,90.25
2018-11-12T05:50:20.552Z,90.02
2018-11-12T05:53:25.893Z,90.01
2018-11-12T05:56:32.213Z,90.09
2018-11-12T05:59:37.575Z,90.67
2018-11-12T06:02:43.495Z,91.16
2018-11-12T06:05:48.939Z,91.61
2018-11-12T06:08:54.276Z,91.33
2018-11-12T06:11:59.621Z,90.66
2018-11-12T06:15:05.501Z,90.40
2018-11-12T06:18:10.837Z,90.01
2018-11-12T06:21:16.218Z,89.66
2018-11-12T06:24:21.636Z,90.18
2018-11-12T06:27:26.998Z,89.97
2018-11-12T06:30:33.785Z,89.67
2018-11-12T06:33:39.195Z,90.48
2018-11-12T06:36:44.597Z,90.78
2018-11-12T06:39:50.129Z,90.32
2018-11-12T06:42:55.561Z,90.77
2018-11-12T06:46:00.915Z,90.26
2018-11-12T06:49:06.291Z,89.82
2018-11-12T06:52:11.662Z,90.10
2018-11-12T06:55:17.789Z,90.00
2018-11-12T06:58:23.130Z,89.13
2018-11-12T07:01:29.886Z,89.28
2018-11-12T07:04:35.535Z,88.85
2018-11-12T07:07:41.116Z,88.77
2018-11-12T07:10:46.552Z,88.33
2018-11-12T07:13:52.065Z,88.61
2018-11-12T07:16:57.437Z,88.81
2018-11-12T07:20:02.819Z,89.53
2018-11-12T07:23:08.353Z,89.80
2018-11-12T07:26:13.764Z,89.14
2018-11-12T07:29:19.114Z,88.98
2018-11-12T07:32:24.528Z,89.53
2018-11-12T07:35:29.941Z,89.24
2018-11-12T07:38:35.301Z,89.32
2018-11-12T07:41:41.444Z,89.79
2018-11-12T07:44:46.885Z,88.26
2018-11-12T07:47:53.078Z,88.44
2018-11-12T07:50:58.566Z,88.70
2018-11-12T07:54:04.002Z,88.87
2018-11-12T07:57:09.374Z,89.24
2018-11-12T08:00:18.523Z,88.21
2018-11-12T08:03:24.046Z,87.98
2018-11-12T08:06:29.585Z,87.97
2018-11-12T08:09:35.065Z,88.41
2018-11-12T08:12:40.671Z,87.61
2018-11-12T08:15:46.107Z,89.27
2018-11-12T08:18:51.578Z,88.37
2018-11-12T08:21:57.321Z,88.50
2018-11-12T08:25:02.797Z,87.80
2018-11-12T08:28:12.878Z,89.06
2018-11-12T08:31:18.366Z,88.88
2018-11-12T08:34:23.887Z,89.36
2018-11-12T08:37:29.378Z,89.26
2018-11-12T08:40:35.334Z,88.50
2018-11-12T08:43:41.074Z,89.17
2018-11-12T08:46:46.443Z,88.98
2018-11-12T08:49:51.994Z,88.31
2018-11-12T08:52:57.941Z,88.09
2018-11-12T08:56:03.325Z,87.60
2018-11-12T08:59:08.887Z,88.57
2018-11-12T09:02:14.445Z,89.16
2018-11-12T09:05:20.837Z,89.60
2018-11-12T09:08:26.302Z,89.33
2018-11-12T09:11:31.749Z,88.80
2018-11-12T09:14:37.225Z,88.44
2018-11-12T09:17:43.614Z,88.21
2018-11-12T09:20:48.962Z,89.27
2018-11-12T09:23:54.362Z,89.65
2018-11-12T09:26:59.714Z,90.14
2018-11-12T09:30:06.683Z,90.05
2018-11-12T09:33:12.143Z,90.44
2018-11-12T09:36:17.506Z,90.85
2018-11-12T09:39:22.932Z,90.94
2018-11-12T09:42:28.506Z,91.71
2018-11-12T09:45:34.801Z,91.63
2018-11-12T09:48:40.192Z,91.55
2018-11-12T09:51:45.826Z,90.93
2018-11-12T09:54:52.159Z,90.82
2018-11-12T09:58:00.342Z,90.92
2018-11-12T10:01:06.518Z,90.66
2018-11-12T10:04:13.250Z,90.93
2018-11-12T10:07:20.655Z,90.41
2018-11-12T10:10:42.318Z,91.19
2018-11-12T10:13:48.113Z,90.39
2018-11-12T10:16:54.602Z,91.35
2018-11-12T10:19:56.946Z,92.28
2018-11-12T10:23:02.310Z,92.43
2018-11-12T10:26:07.685Z,91.78
2018-11-12T10:29:13.062Z,90.76
2018-11-12T10:32:18.429Z,90.78
2018-11-12T10:35:24.328Z,91.00
2018-11-12T10:38:29.718Z,90.74
2018-11-12T10:41:35.278Z,90.83
2018-11-12T10:44:40.701Z,91.08
2018-11-12T10:47:47.114Z,91.30
2018-11-12T10:50:56.377Z,91.56
2018-11-12T10:53:58.449Z,90.87
2018-11-12T10:57:03.889Z,91.30
2018-11-12T11:00:19.557Z,91.47
2018-11-12T11:03:30.231Z,91.41
2018-11-12T11:06:35.561Z,90.60
2018-11-12T11:09:40.951Z,90.67
2018-11-12T11:12:46.942Z,90.09
2018-11-12T11:15:52.401Z,89.73
2018-11-12T11:18:57.758Z,89.15
2018-11-12T11:22:03.993Z,90.21
2018-11-12T11:25:09.585Z,90.82
2018-11-12T11:28:14.918Z,90.55
2018-11-12T11:31:20.341Z,89.49
2018-11-12T11:34:25.912Z,90.02
2018-11-12T11:37:31.235Z,89.63
2018-11-12T11:40:37.213Z,89.85
2018-11-12T11:43:42.753Z,90.25
2018-11-12T11:46:48.170Z,90.14
2018-11-12T11:49:53.567Z,90.16
2018-11-12T11:52:58.912Z,90.58
2018-11-12T11:56:04.361Z,89.80
2018-11-12T11:59:09.730Z,88.71
2018-11-12T12:02:15.142Z,89.21
2018-11-12T12:05:21.541Z,88.98
2018-11-12T12:08:26.957Z,89.33
2018-11-12T12:11:32.330Z,89.38
2018-11-12T12:14:37.821Z,89.37
2018-11-12T12:17:43.200Z,88.81
2018-11-12T12:20:48.644Z,88.58
2018-11-12T12:23:54.111Z,87.81
2018-11-12T12:26:59.565Z,87.67
2018-11-12T12:30:06.426Z,88.84
2018-11-12T12:33:11.895Z,88.89
2018-11-12T12:36:17.512Z,89.57
2018-11-12T12:39:23.455Z,89.49
2018-11-12T12:42:28.838Z,89.20
2018-11-12T12:45:34.425Z,89.20
2018-11-12T12:48:40.013Z,89.18
2018-11-12T12:51:45.389Z,89.22
2018-11-12T12:54:50.856Z,88.74
2018-11-12T12:57:56.221Z,89.36
2018-11-12T13:01:01.583Z,89.56
2018-11-12T13:04:07.018Z,89.81
2018-11-12T13:07:12.433Z,89.90
2018-11-12T13:10:19.329Z,90.03
2018-11-12T13:13:24.815Z,90.27
2018-11-12T13:16:30.230Z,89.39
2018-11-12T13:19:35.641Z,89.50
2018-11-12T13:22:41.749Z,90.55
2018-11-12T13:25:47.165Z,90.27
2018-11-12T13:28:52.538Z,90.10
2018-11-12T13:32:10.153Z,90.74
2018-11-12T13:35:16.972Z,90.71
2018-11-12T13:38:22.410Z,90.93
2018-11-12T13:41:27.790Z,90.54
2018-11-12T13:44:33.210Z,90.49
2018-11-12T13:47:38.600Z,90.26
2018-11-12T13:50:44.038Z,90.19
2018-11-12T13:53:49.494Z,90.43
2018-11-12T13:56:54.866Z,90.04
2018-11-12T14:00:00.214Z,89.48
2018-11-12T14:03:06.566Z,89.79
2018-11-12T14:06:11.930Z,89.82
2018-11-12T14:09:17.321Z,90.25
2018-11-12T14:12:23.308Z,89.48
2018-11-12T14:15:28.754Z,90.35
2018-11-12T14:18:34.130Z,89.98
2018-11-12T14:21:40.245Z,89.77
2018-11-12T14:24:45.774Z,89.64
2018-11-12T14:27:52.334Z,89.80
2018-11-12T14:30:57.862Z,90.54
2018-11-12T14:34:03.359Z,90.55
2018-11-12T14:37:08.705Z,89.93
2018-11-12T14:40:15.092Z,89.20
2018-11-12T14:43:20.801Z,89.37
2018-11-12T14:46:26.152Z,89.18
2018-11-12T14:49:31.731Z,88.58
2018-11-12T14:52:37.305Z,89.36
2018-11-12T14:55:42.891Z,89.58
2018-11-12T14:58:48.330Z,89.87
2018-11-12T15:01:53.735Z,90.45
2018-11-12T15:04:59.366Z,90.75
2018-11-12T15:08:04.706Z,91.65
2018-11-12T15:11:10.102Z,90.90
2018-11-12T15:14:15.504Z,91.10
2018-11-12T15:17:20.898Z,90.32
2018-11-12T15:20:26.245Z,91.09
2018-11-12T15:23:31.626Z,90.67
2018-11-12T15:26:37.102Z,91.53
2018-11-12T15:29:43.310Z,91.23
2018-11-12T15:32:49.925Z,91.44
2018-11-12T15:35:55.374Z,91.23
2018-11-12T15:39:00.714Z,91.13
2018-11-12T15:42:07.205Z,91.45
2018-11-12T15:45:17.150Z,91.68
2018-11-12T15:48:22.515Z,90.94
2018-11-12T15:51:27.932Z,90.95
2018-11-12T15:54:33.502Z,91.65
2018-11-12T15:57:39.153Z,91.52
2018-11-12T16:00:44.654Z,91.24
2018-11-12T16:03:50.058Z,90.60
2018-11-12T16:06:55.615Z,90.76
2018-11-12T16:10:01.028Z,91.17
2018-11-12T16:13:06.550Z,90.73
2018-11-12T16:16:11.954Z,91.12
2018-11-12T16:19:17.654Z,90.65
2018-11-12T16:22:23.099Z,90.75
2018-11-12T16:25:29.074Z,90.75
2018-11-12T16:28:34.671Z,90.91
2018-11-12T16:31:40.120Z,90.68
2018-11-12T16:34:46.930Z,90.23
2018-11-12T16:37:53.374Z,90.37
2018-11-12T16:40:58.715Z,90.07
2018-11-12T16:44:04.474Z,89.34
2018-11-12T16:47:09.986Z,90.11
2018-11-12T16:50:16.603Z,88.74
2018-11-12T16:53:22.453Z,89.54
2018-11-12T16:56:27.811Z,89.61
2018-11-12T16:59:33.203Z,90.14
2018-11-12T17:02:38.715Z,90.06
2018-11-12T17:05:44.148Z,89.34
2018-11-12T17:08:49.515Z,89.87
2018-11-12T17:11:55.007Z,89.49
2018-11-12T17:15:00.600Z,89.18
2018-11-12T17:18:06.190Z,89.99
2018-11-12T17:21:11.540Z,89.34
2018-11-12T17:24:17.095Z,89.45
2018-11-12T17:27:22.594Z,89.05
2018-11-12T17:30:27.990Z,88.39
2018-11-12T17:33:33.733Z,88.49
2018-11-12T17:36:39.689Z,87.40
2018-11-12T17:39:45.590Z,87.34
2018-11-12T17:42:51.836Z,87.55
2018-11-12T17:45:57.190Z,87.66
2018-11-12T17:49:02.799Z,87.20
2018-11-12T17:52:08.750Z,87.50
2018-11-12T17:55:14.481Z,87.27
2018-11-12T17:58:19.954Z,87.95
2018-11-12T18:01:25.348Z,87.39
2018-11-12T18:04:31.254Z,87.40
2018-11-12T18:07:37.339Z,86.75
2018-11-12T18:10:42.830Z,87.22
2018-11-12T18:13:48.287Z,86.69
2018-11-12T18:16:54.181Z,87.59
2018-11-12T18:19:59.629Z,88.04
2018-11-12T18:23:07.947Z,86.75
2018-11-12T18:26:13.481Z,87.59
2018-11-12T18:29:18.863Z,88.22
2018-11-12T18:32:24.263Z,87.83
2018-11-12T18:35:30.174Z,88.09
2018-11-12T18:38:35.965Z,87.71
2018-11-12T18:41:41.417Z,88.21
2018-11-12T18:44:49.239Z,87.53
2018-11-12T18:47:55.143Z,88.41
2018-11-12T18:51:00.491Z,88.71
2018-11-12T18:54:06.142Z,87.68
2018-11-12T18:57:11.622Z,88.42
2018-11-12T19:00:18.566Z,87.90
2018-11-12T19:03:24.104Z,88.29
2018-11-12T19:06:29.670Z,87.48
2018-11-12T19:09:35.054Z,86.90
2018-11-12T19:12:40.418Z,87.71
2018-11-12T19:15:45.914Z,87.44
2018-11-12T19:18:51.329Z,87.57
2018-11-12T19:21:56.706Z,88.07
2018-11-12T19:25:02.635Z,87.73
2018-11-12T19:28:08.119Z,86.75
2018-11-12T19:31:13.501Z,86.73
2018-11-12T19:34:18.910Z,86.63
2018-11-12T19:37:24.511Z,86.43
2018-11-12T19:40:31.108Z,86.66
2018-11-12T19:43:36.591Z,86.67
2018-11-12T19:46:42.025Z,86.96
2018-11-12T19:49:47.397Z,87.48
2018-11-12T19:52:54.247Z,87.85
2018-11-12T19:55:59.649Z,87.18
2018-11-12T19:59:05.129Z,87.17
2018-11-12T20:02:10.666Z,87.46
2018-11-12T20:05:16.521Z,87.72
2018-11-12T20:08:21.939Z,87.62
2018-11-12T20:11:27.474Z,86.88
2018-11-12T20:14:32.922Z,87.35
2018-11-12T20:17:38.355Z,87.75
2018-11-12T20:20:43.752Z,86.65
2018-11-12T20:23:49.138Z,86.78
2018-11-12T20:26:54.599Z,87.60
2018-11-12T20:29:59.978Z,87.07
2018-11-12T20:33:05.670Z,87.25
2018-11-12T20:36:11.062Z,86.71
2018-11-12T20:39:16.474Z,87.28
2018-11-12T20:42:21.840Z,87.55
2018-11-12T20:45:27.419Z,88.03
2018-11-12T20:48:32.844Z,87.79
2018-11-12T20:51:38.236Z,88.30
2018-11-12T20:54:43.691Z,87.53
2018-11-12T20:57:49.434Z,87.13
2018-11-12T21:00:54.946Z,87.51
2018-11-12T21:04:00.381Z,87.30
2018-11-12T21:07:06.151Z,87.11
2018-11-12T21:10:14.306Z,87.55
2018-11-12T21:13:19.699Z,87.14
2018-11-12T21:16:25.084Z,87.78
2018-11-12T21:19:31.163Z,87.93
2018-11-12T21:22:36.823Z,88.01
2018-11-12T21:25:42.595Z,87.61
2018-11-12T21:28:47.983Z,87.43
2018-11-12T21:31:53.651Z,87.30
2018-11-12T21:34:59.094Z,88.08
2018-11-12T21:38:04.465Z,87.93
2018-11-12T21:41:09.849Z,87.17
2018-11-12T21:44:15.385Z,87.39
2018-11-12T21:47:20.863Z,86.91
2018-11-12T21:50:26.330Z,87.25
2018-11-12T21:53:31.761Z,86.73
2018-11-12T21:56:37.179Z,86.83
2018-11-12T21:59:42.531Z,86.10
2018-11-12T22:02:49.362Z,86.22
2018-11-12T22:05:54.797Z,85.60
2018-11-12T22:09:00.631Z,85.33
2018-11-12T22:12:06.922Z,86.24
2018-11-12T22:15:12.875Z,85.50
2018-11-12T22:18:18.397Z,85.61
2018-11-12T22:21:23.834Z,85.98
2018-11-12T22:24:29.262Z,86.05
2018-11-12T22:27:34.781Z,86.48
2018-11-12T22:30:40.434Z,86.37
2018-11-12T22:33:45.951Z,86.19
2018-11-12T22:36:51.681Z,86.59
2018-11-12T22:39:57.153Z,86.69
2018-11-12T22:43:02.709Z,85.95
2018-11-12T22:46:08.206Z,86.89
2018-11-12T22:49:13.586Z,86.79
2018-11-12T22:52:18.965Z,86.80
2018-11-12T22:55:24.438Z,87.19
2018-11-12T22:58:29.818Z,86.87
2018-11-12T23:01:35.195Z,87.16
2018-11-12T23:04:40.676Z,87.09
2018-11-12T23:07:46.899Z,86.72
2018-11-12T23:10:52.594Z,86.82
2018-11-12T23:13:58.118Z,86.67
2018-11-12T23:17:03.542Z,86.52
2018-11-12T23:20:14.085Z,87.25
2018-11-12T23:23:19.583Z,87.14
2018-11-12T23:26:25.191Z,87.14
2018-11-12T23:29:30.630Z,86.96
2018-11-12T23:32:36.289Z,87.25
2018-11-12T23:35:41.725Z,87.15
2018-11-12T23:38:47.137Z,87.21
2018-11-12T23:41:52.573Z,87.22
2018-11-12T23:44:58.041Z,87.25
2018-11-12T23:48:03.426Z,87.53
2018-11-12T23:51:08.818Z,87.68
2018-11-12T23:54:14.534Z,87.41
2018-11-12T23:57:19.951Z,87.68
